sensor_id;sensor_type;location;lat;lon;timestamp;P1;durP1;ratioP1;P2;durP2;ratioP2
21731;SDS011;11028;51.156;17.130;2023-02-11T00:00:22;56.38;;;22.77;;
21731;SDS011;11028;51.156;17.130;2023-02-11T00:07:40;47.78;;;21.83;;
21731;SDS011;11028;51.156;17.130;2023-02-11T00:15:00;49.90;;;19.30;;
21731;SDS011;11028;51.156;17.130;2023-02-11T00:22:18;48.97;;;22.15;;
21731;SDS011;11028;51.156;17.130;2023-02-11T00:29:37;51.22;;;22.42;;
21731;SDS011;11028;51.156;17.130;2023-02-11T00:36:57;55.50;;;23.77;;
21731;SDS011;11028;51.156;17.130;2023-02-11T00:44:16;54.42;;;23.67;;
21731;SDS011;11028;51.156;17.130;2023-02-11T00:51:36;49.88;;;23.00;;
21731;SDS011;11028;51.156;17.130;2023-02-11T00:58:56;53.10;;;23.15;;
21731;SDS011;11028;51.156;17.130;2023-02-11T01:06:15;54.65;;;24.40;;
21731;SDS011;11028;51.156;17.130;2023-02-11T01:13:34;58.22;;;25.05;;
21731;SDS011;11028;51.156;17.130;2023-02-11T01:20:54;57.20;;;24.23;;
21731;SDS011;11028;51.156;17.130;2023-02-11T01:28:14;56.00;;;23.08;;
21731;SDS011;11028;51.156;17.130;2023-02-11T01:35:33;61.17;;;25.63;;
21731;SDS011;11028;51.156;17.130;2023-02-11T01:42:53;57.83;;;25.90;;
21731;SDS011;11028;51.156;17.130;2023-02-11T01:50:11;57.47;;;26.77;;
21731;SDS011;11028;51.156;17.130;2023-02-11T01:57:31;62.65;;;26.38;;
21731;SDS011;11028;51.156;17.130;2023-02-11T02:04:54;58.10;;;25.48;;
21731;SDS011;11028;51.156;17.130;2023-02-11T02:12:19;59.60;;;24.45;;
21731;SDS011;11028;51.156;17.130;2023-02-11T02:27:44;60.28;;;25.77;;
21731;SDS011;11028;51.156;17.130;2023-02-11T02:35:10;57.03;;;24.53;;
21731;SDS011;11028;51.156;17.130;2023-02-11T02:42:36;61.17;;;25.15;;
21731;SDS011;11028;51.156;17.130;2023-02-11T02:49:55;50.70;;;23.23;;
21731;SDS011;11028;51.156;17.130;2023-02-11T02:57:18;50.55;;;22.83;;
21731;SDS011;11028;51.156;17.130;2023-02-11T03:04:45;45.15;;;21.35;;
21731;SDS011;11028;51.156;17.130;2023-02-11T03:12:07;42.35;;;19.80;;
21731;SDS011;11028;51.156;17.130;2023-02-11T03:19:29;48.30;;;22.52;;
21731;SDS011;11028;51.156;17.130;2023-02-11T03:26:50;44.88;;;20.13;;
21731;SDS011;11028;51.156;17.130;2023-02-11T03:34:10;45.72;;;23.15;;
21731;SDS011;11028;51.156;17.130;2023-02-11T03:41:32;43.35;;;21.27;;
21731;SDS011;11028;51.156;17.130;2023-02-11T03:48:53;50.33;;;24.52;;
21731;SDS011;11028;51.156;17.130;2023-02-11T03:56:14;51.33;;;23.10;;
21731;SDS011;11028;51.156;17.130;2023-02-11T04:03:35;47.63;;;22.42;;
21731;SDS011;11028;51.156;17.130;2023-02-11T04:10:54;49.35;;;22.63;;
21731;SDS011;11028;51.156;17.130;2023-02-11T04:18:12;50.85;;;22.77;;
21731;SDS011;11028;51.156;17.130;2023-02-11T04:25:32;51.40;;;23.73;;
21731;SDS011;11028;51.156;17.130;2023-02-11T04:32:50;48.78;;;21.45;;
21731;SDS011;11028;51.156;17.130;2023-02-11T04:40:10;49.63;;;22.85;;
21731;SDS011;11028;51.156;17.130;2023-02-11T04:47:30;48.30;;;22.23;;
21731;SDS011;11028;51.156;17.130;2023-02-11T04:54:51;44.72;;;21.17;;
21731;SDS011;11028;51.156;17.130;2023-02-11T05:02:11;43.60;;;20.10;;
21731;SDS011;11028;51.156;17.130;2023-02-11T05:09:31;37.50;;;17.05;;
21731;SDS011;11028;51.156;17.130;2023-02-11T05:16:49;38.60;;;20.25;;
21731;SDS011;11028;51.156;17.130;2023-02-11T05:24:07;44.70;;;21.27;;
21731;SDS011;11028;51.156;17.130;2023-02-11T05:31:27;29.85;;;15.25;;
21731;SDS011;11028;51.156;17.130;2023-02-11T05:38:45;43.67;;;20.10;;
21731;SDS011;11028;51.156;17.130;2023-02-11T05:46:05;41.67;;;21.23;;
21731;SDS011;11028;51.156;17.130;2023-02-11T05:53:25;47.42;;;20.60;;
21731;SDS011;11028;51.156;17.130;2023-02-11T06:00:44;43.65;;;21.77;;
21731;SDS011;11028;51.156;17.130;2023-02-11T06:08:02;45.60;;;21.25;;
21731;SDS011;11028;51.156;17.130;2023-02-11T06:15:22;44.63;;;20.08;;
21731;SDS011;11028;51.156;17.130;2023-02-11T06:22:40;50.72;;;22.85;;
21731;SDS011;11028;51.156;17.130;2023-02-11T06:29:58;53.78;;;22.48;;
21731;SDS011;11028;51.156;17.130;2023-02-11T06:37:18;57.13;;;22.98;;
21731;SDS011;11028;51.156;17.130;2023-02-11T06:44:36;52.22;;;24.15;;
21731;SDS011;11028;51.156;17.130;2023-02-11T06:51:54;52.67;;;24.48;;
21731;SDS011;11028;51.156;17.130;2023-02-11T06:59:16;65.28;;;31.08;;
21731;SDS011;11028;51.156;17.130;2023-02-11T07:06:36;55.78;;;25.95;;
21731;SDS011;11028;51.156;17.130;2023-02-11T07:13:56;52.40;;;24.65;;
21731;SDS011;11028;51.156;17.130;2023-02-11T07:21:19;48.40;;;23.13;;
21731;SDS011;11028;51.156;17.130;2023-02-11T07:28:40;56.53;;;23.77;;
21731;SDS011;11028;51.156;17.130;2023-02-11T07:35:59;48.95;;;22.50;;
21731;SDS011;11028;51.156;17.130;2023-02-11T07:43:18;46.85;;;22.65;;
21731;SDS011;11028;51.156;17.130;2023-02-11T07:50:36;49.45;;;21.65;;
21731;SDS011;11028;51.156;17.130;2023-02-11T07:57:55;49.85;;;22.65;;
21731;SDS011;11028;51.156;17.130;2023-02-11T08:05:16;50.38;;;23.80;;
21731;SDS011;11028;51.156;17.130;2023-02-11T08:12:36;50.45;;;23.63;;
21731;SDS011;11028;51.156;17.130;2023-02-11T08:19:54;42.35;;;20.15;;
21731;SDS011;11028;51.156;17.130;2023-02-11T08:27:14;49.08;;;22.38;;
21731;SDS011;11028;51.156;17.130;2023-02-11T08:34:32;38.50;;;19.83;;
21731;SDS011;11028;51.156;17.130;2023-02-11T08:41:54;51.63;;;22.63;;
21731;SDS011;11028;51.156;17.130;2023-02-11T08:49:14;44.97;;;22.70;;
21731;SDS011;11028;51.156;17.130;2023-02-11T08:56:33;50.90;;;22.95;;
21731;SDS011;11028;51.156;17.130;2023-02-11T09:13:26;49.97;;;24.30;;
21731;SDS011;11028;51.156;17.130;2023-02-11T09:20:46;52.83;;;24.75;;
21731;SDS011;11028;51.156;17.130;2023-02-11T09:28:04;45.80;;;20.98;;
21731;SDS011;11028;51.156;17.130;2023-02-11T09:35:24;47.83;;;24.45;;
21731;SDS011;11028;51.156;17.130;2023-02-11T09:42:44;48.20;;;23.67;;
21731;SDS011;11028;51.156;17.130;2023-02-11T09:50:03;44.80;;;22.23;;
21731;SDS011;11028;51.156;17.130;2023-02-11T09:57:25;46.42;;;23.65;;
21731;SDS011;11028;51.156;17.130;2023-02-11T10:04:50;41.17;;;19.40;;
21731;SDS011;11028;51.156;17.130;2023-02-11T10:12:35;36.83;;;20.05;;
21731;SDS011;11028;51.156;17.130;2023-02-11T10:20:04;38.90;;;20.88;;
21731;SDS011;11028;51.156;17.130;2023-02-11T10:27:34;28.73;;;16.55;;
21731;SDS011;11028;51.156;17.130;2023-02-11T10:34:52;38.70;;;20.48;;
21731;SDS011;11028;51.156;17.130;2023-02-11T10:42:13;37.10;;;18.27;;
21731;SDS011;11028;51.156;17.130;2023-02-11T10:49:33;41.38;;;20.02;;
21731;SDS011;11028;51.156;17.130;2023-02-11T10:56:58;49.78;;;21.00;;
21731;SDS011;11028;51.156;17.130;2023-02-11T11:13:30;40.33;;;20.42;;
21731;SDS011;11028;51.156;17.130;2023-02-11T11:20:54;45.33;;;22.70;;
21731;SDS011;11028;51.156;17.130;2023-02-11T11:28:18;41.60;;;20.65;;
21731;SDS011;11028;51.156;17.130;2023-02-11T11:35:41;44.25;;;22.23;;
21731;SDS011;11028;51.156;17.130;2023-02-11T11:43:04;44.00;;;21.33;;
21731;SDS011;11028;51.156;17.130;2023-02-11T11:50:25;42.70;;;22.75;;
21731;SDS011;11028;51.156;17.130;2023-02-11T11:57:46;42.58;;;21.95;;
21731;SDS011;11028;51.156;17.130;2023-02-11T12:05:05;44.92;;;20.65;;
21731;SDS011;11028;51.156;17.130;2023-02-11T12:12:30;43.28;;;21.38;;
21731;SDS011;11028;51.156;17.130;2023-02-11T12:19:59;41.42;;;19.38;;
21731;SDS011;11028;51.156;17.130;2023-02-11T12:27:37;45.65;;;22.70;;
21731;SDS011;11028;51.156;17.130;2023-02-11T12:35:04;43.45;;;21.88;;
21731;SDS011;11028;51.156;17.130;2023-02-11T13:00:17;44.33;;;22.92;;
21731;SDS011;11028;51.156;17.130;2023-02-11T13:07:39;27.73;;;13.93;;
21731;SDS011;11028;51.156;17.130;2023-02-11T13:15:02;47.83;;;21.50;;
21731;SDS011;11028;51.156;17.130;2023-02-11T13:22:25;41.47;;;20.40;;
21731;SDS011;11028;51.156;17.130;2023-02-11T13:37:41;39.57;;;21.03;;
21731;SDS011;11028;51.156;17.130;2023-02-11T13:45:11;37.88;;;20.50;;
21731;SDS011;11028;51.156;17.130;2023-02-11T13:52:35;41.92;;;21.83;;
21731;SDS011;11028;51.156;17.130;2023-02-11T13:59:57;31.55;;;16.05;;
21731;SDS011;11028;51.156;17.130;2023-02-11T14:07:26;37.50;;;19.17;;
21731;SDS011;11028;51.156;17.130;2023-02-11T14:22:58;43.45;;;21.25;;
21731;SDS011;11028;51.156;17.130;2023-02-11T14:38:01;41.78;;;21.70;;
21731;SDS011;11028;51.156;17.130;2023-02-11T14:45:24;43.60;;;20.80;;
21731;SDS011;11028;51.156;17.130;2023-02-11T14:52:44;40.65;;;21.60;;
21731;SDS011;11028;51.156;17.130;2023-02-11T15:00:06;40.38;;;22.15;;
21731;SDS011;11028;51.156;17.130;2023-02-11T15:07:33;43.13;;;22.40;;
21731;SDS011;11028;51.156;17.130;2023-02-11T15:14:52;45.75;;;22.30;;
21731;SDS011;11028;51.156;17.130;2023-02-11T15:22:16;50.40;;;25.63;;
21731;SDS011;11028;51.156;17.130;2023-02-11T15:29:37;50.53;;;25.73;;
21731;SDS011;11028;51.156;17.130;2023-02-11T15:36:57;51.75;;;24.65;;
21731;SDS011;11028;51.156;17.130;2023-02-11T15:44:27;46.35;;;24.52;;
21731;SDS011;11028;51.156;17.130;2023-02-11T15:51:46;50.38;;;24.15;;
21731;SDS011;11028;51.156;17.130;2023-02-11T15:59:08;45.38;;;23.33;;
21731;SDS011;11028;51.156;17.130;2023-02-11T16:13:53;45.75;;;23.95;;
21731;SDS011;11028;51.156;17.130;2023-02-11T16:21:13;47.53;;;24.50;;
21731;SDS011;11028;51.156;17.130;2023-02-11T16:28:35;48.03;;;25.10;;
21731;SDS011;11028;51.156;17.130;2023-02-11T16:35:53;43.88;;;23.27;;
21731;SDS011;11028;51.156;17.130;2023-02-11T16:43:13;42.70;;;21.13;;
21731;SDS011;11028;51.156;17.130;2023-02-11T16:50:34;44.65;;;20.77;;
21731;SDS011;11028;51.156;17.130;2023-02-11T16:57:53;46.70;;;21.08;;
21731;SDS011;11028;51.156;17.130;2023-02-11T17:05:14;43.88;;;22.38;;
21731;SDS011;11028;51.156;17.130;2023-02-11T17:12:35;43.73;;;21.83;;
21731;SDS011;11028;51.156;17.130;2023-02-11T17:19:53;42.75;;;22.88;;
21731;SDS011;11028;51.156;17.130;2023-02-11T17:27:12;47.35;;;24.10;;
21731;SDS011;11028;51.156;17.130;2023-02-11T17:34:32;50.47;;;24.88;;
21731;SDS011;11028;51.156;17.130;2023-02-11T17:41:50;44.83;;;22.98;;
21731;SDS011;11028;51.156;17.130;2023-02-11T17:49:08;45.20;;;24.02;;
21731;SDS011;11028;51.156;17.130;2023-02-11T17:56:30;56.45;;;31.00;;
21731;SDS011;11028;51.156;17.130;2023-02-11T18:03:49;60.03;;;29.33;;
21731;SDS011;11028;51.156;17.130;2023-02-11T18:11:07;45.92;;;23.55;;
21731;SDS011;11028;51.156;17.130;2023-02-11T18:18:27;41.47;;;23.63;;
21731;SDS011;11028;51.156;17.130;2023-02-11T18:25:46;51.65;;;26.17;;
21731;SDS011;11028;51.156;17.130;2023-02-11T18:33:04;42.78;;;21.70;;
21731;SDS011;11028;51.156;17.130;2023-02-11T18:40:28;45.90;;;21.77;;
21731;SDS011;11028;51.156;17.130;2023-02-11T18:47:49;39.90;;;22.20;;
21731;SDS011;11028;51.156;17.130;2023-02-11T18:55:07;47.33;;;22.48;;
21731;SDS011;11028;51.156;17.130;2023-02-11T19:02:27;37.47;;;19.70;;
21731;SDS011;11028;51.156;17.130;2023-02-11T19:09:46;42.35;;;21.30;;
21731;SDS011;11028;51.156;17.130;2023-02-11T19:17:05;42.13;;;21.85;;
21731;SDS011;11028;51.156;17.130;2023-02-11T19:24:28;44.20;;;22.05;;
21731;SDS011;11028;51.156;17.130;2023-02-11T19:31:46;41.92;;;22.08;;
21731;SDS011;11028;51.156;17.130;2023-02-11T19:39:05;39.10;;;21.38;;
21731;SDS011;11028;51.156;17.130;2023-02-11T19:46:26;41.92;;;23.77;;
21731;SDS011;11028;51.156;17.130;2023-02-11T19:53:46;41.10;;;21.02;;
21731;SDS011;11028;51.156;17.130;2023-02-11T20:01:05;41.30;;;22.92;;
21731;SDS011;11028;51.156;17.130;2023-02-11T20:08:25;37.20;;;20.25;;
21731;SDS011;11028;51.156;17.130;2023-02-11T20:15:44;36.17;;;20.60;;
21731;SDS011;11028;51.156;17.130;2023-02-11T20:23:02;48.65;;;24.77;;
21731;SDS011;11028;51.156;17.130;2023-02-11T20:30:22;38.03;;;20.42;;
21731;SDS011;11028;51.156;17.130;2023-02-11T20:37:40;42.92;;;23.08;;
21731;SDS011;11028;51.156;17.130;2023-02-11T20:44:59;42.38;;;21.25;;
21731;SDS011;11028;51.156;17.130;2023-02-11T20:52:19;52.08;;;26.58;;
21731;SDS011;11028;51.156;17.130;2023-02-11T20:59:38;34.15;;;18.95;;
21731;SDS011;11028;51.156;17.130;2023-02-11T21:06:57;37.75;;;19.85;;
21731;SDS011;11028;51.156;17.130;2023-02-11T21:14:18;32.60;;;20.70;;
21731;SDS011;11028;51.156;17.130;2023-02-11T21:21:38;39.05;;;19.63;;
21731;SDS011;11028;51.156;17.130;2023-02-11T21:28:56;40.20;;;22.52;;
21731;SDS011;11028;51.156;17.130;2023-02-11T21:36:16;41.47;;;22.00;;
21731;SDS011;11028;51.156;17.130;2023-02-11T21:43:34;43.17;;;23.08;;
21731;SDS011;11028;51.156;17.130;2023-02-11T21:50:52;42.70;;;22.23;;
21731;SDS011;11028;51.156;17.130;2023-02-11T21:58:12;43.88;;;22.35;;
21731;SDS011;11028;51.156;17.130;2023-02-11T22:05:31;46.88;;;25.38;;
21731;SDS011;11028;51.156;17.130;2023-02-11T22:12:49;48.33;;;26.25;;
21731;SDS011;11028;51.156;17.130;2023-02-11T22:20:09;54.38;;;28.60;;
21731;SDS011;11028;51.156;17.130;2023-02-11T22:27:28;52.45;;;26.40;;
21731;SDS011;11028;51.156;17.130;2023-02-11T22:34:46;44.38;;;23.20;;
21731;SDS011;11028;51.156;17.130;2023-02-11T22:42:09;42.80;;;23.05;;
21731;SDS011;11028;51.156;17.130;2023-02-11T22:49:28;42.70;;;22.80;;
21731;SDS011;11028;51.156;17.130;2023-02-11T22:56:48;42.53;;;21.77;;
21731;SDS011;11028;51.156;17.130;2023-02-11T23:04:09;40.60;;;20.25;;
21731;SDS011;11028;51.156;17.130;2023-02-11T23:11:30;43.03;;;20.23;;
21731;SDS011;11028;51.156;17.130;2023-02-11T23:18:49;42.25;;;20.77;;
21731;SDS011;11028;51.156;17.130;2023-02-11T23:26:09;37.88;;;20.80;;
21731;SDS011;11028;51.156;17.130;2023-02-11T23:33:28;40.47;;;20.42;;
21731;SDS011;11028;51.156;17.130;2023-02-11T23:48:11;47.03;;;21.38;;
21731;SDS011;11028;51.156;17.130;2023-02-11T23:55:29;45.35;;;22.08;;
